Time;durP1;ratioP1;P1;durP2;ratioP2;P2;SDS_P1;SDS_P2;PMS_P1;PMS_P2;Temp;Humidity;BMP_temperature;BMP_pressure;BME280_temperature;BME280_humidity;BME280_pressure;Samples;Min_cycle;Max_cycle;Signal;HPM_P1;HPM_P2
2023/08/05 00:00:08;;;;;;;;;;;29.80;52.90;;;;;;5033620;28;87182;-56
2023/08/05 00:02:34;;;;;;;;;;;29.70;52.90;;;;;;5035156;28;87346;-55
2023/08/05 00:04:59;;;;;;;;;;;29.80;52.90;;;;;;5033854;28;88370;-56
2023/08/05 00:07:25;;;;;;;;;;;29.70;52.90;;;;;;5033031;28;87103;-52
2023/08/05 00:09:51;;;;;;;;;;;29.70;52.80;;;;;;5034268;28;87408;-55
2023/08/05 00:12:16;;;;;;;;;;;29.70;52.90;;;;;;5030709;28;88642;-53
2023/08/05 00:14:42;;;;;;;;;;;29.70;52.80;;;;;;5034310;28;87172;-54
2023/08/05 00:17:07;;;;;;;;;;;29.70;52.80;;;;;;5032607;28;88642;-53
2023/08/05 00:19:33;;;;;;;;;;;29.60;52.70;;;;;;5038397;28;89387;-58
2023/08/05 00:21:58;;;;;;;;;;;29.60;52.80;;;;;;5033106;28;88283;-57
2023/08/05 00:24:24;;;;;;;;;;;29.60;52.80;;;;;;5034651;28;88094;-58
2023/08/05 00:26:49;;;;;;;;;;;29.60;52.80;;;;;;5032071;28;87222;-56
2023/08/05 00:29:14;;;;;;;;;;;29.60;52.70;;;;;;5035235;28;87743;-58
2023/08/05 00:31:40;;;;;;;;;;;29.60;52.70;;;;;;5033991;28;88035;-55
2023/08/05 00:34:05;;;;;;;;;;;29.60;52.80;;;;;;5034935;28;87186;-57
2023/08/05 00:36:31;;;;;;;;;;;29.50;52.70;;;;;;5033833;28;87661;-55
2023/08/05 00:38:56;;;;;;;;;;;29.50;52.70;;;;;;5035303;27;88348;-54
2023/08/05 00:41:22;;;;;;;;;;;29.50;52.70;;;;;;5034659;28;87471;-53
2023/08/05 00:43:48;;;;;;;;;;;29.50;52.70;;;;;;5027050;28;89299;-53
2023/08/05 00:46:13;;;;;;;;;;;29.50;52.70;;;;;;5035863;28;87168;-57
2023/08/05 00:48:39;;;;;;;;;;;29.50;52.70;;;;;;5033032;28;87327;-54
2023/08/05 00:51:06;;;;;;;;;;;29.50;52.70;;;;;;5034551;28;88054;-56
2023/08/05 00:53:33;;;;;;;;;;;29.40;52.70;;;;;;5033343;28;87115;-57
2023/08/05 00:55:59;;;;;;;;;;;29.40;52.70;;;;;;5031224;28;87269;-58
2023/08/05 00:58:25;;;;;;;;;;;29.40;52.80;;;;;;5033629;28;88409;-53
2023/08/05 01:00:51;;;;;;;;;;;29.50;52.70;;;;;;5037574;28;86747;-53
2023/08/05 01:03:16;;;;;;;;;;;29.40;52.60;;;;;;5032312;28;88383;-55
2023/08/05 01:05:43;;;;;;;;;;;29.40;52.60;;;;;;5034988;28;87142;-55
2023/08/05 01:08:09;;;;;;;;;;;29.40;52.60;;;;;;5031690;28;88070;-56
2023/08/05 01:10:35;;;;;;;;;;;29.40;52.80;;;;;;5034442;27;87835;-55
2023/08/05 01:13:00;;;;;;;;;;;29.40;52.60;;;;;;5030384;28;87252;-54
2023/08/05 01:15:26;;;;;;;;;;;29.40;52.70;;;;;;5033413;28;87759;-56
2023/08/05 01:17:53;;;;;;;;;;;29.40;52.70;;;;;;5034231;28;87668;-54
2023/08/05 01:20:19;;;;;;;;;;;29.30;52.70;;;;;;5032482;28;87106;-54
2023/08/05 01:22:47;;;;;;;;;;;29.30;52.70;;;;;;5036083;28;88804;-55
2023/08/05 01:25:23;;;;;;;;;;;29.30;52.70;;;;;;5032400;28;86426;-54
2023/08/05 01:27:49;;;;;;;;;;;29.30;52.70;;;;;;5033094;28;88505;-54
2023/08/05 01:30:15;;;;;;;;;;;29.20;52.70;;;;;;5028006;28;88013;-53
2023/08/05 01:32:41;;;;;;;;;;;29.30;52.70;;;;;;5031954;28;88648;-56
2023/08/05 01:35:09;;;;;;;;;;;29.30;52.70;;;;;;5033817;28;89666;-54
2023/08/05 01:37:35;;;;;;;;;;;29.20;52.70;;;;;;5032198;28;89828;-55
2023/08/05 01:40:00;;;;;;;;;;;29.20;52.70;;;;;;5032322;28;87149;-54
2023/08/05 01:42:26;;;;;;;;;;;29.20;52.60;;;;;;5033397;28;87481;-59
2023/08/05 01:44:51;;;;;;;;;;;29.20;52.70;;;;;;5034435;28;88089;-56
2023/08/05 01:47:17;;;;;;;;;;;29.10;52.70;;;;;;5034672;28;87438;-56
2023/08/05 01:49:42;;;;;;;;;;;29.10;52.60;;;;;;5031615;28;87338;-56
2023/08/05 01:52:08;;;;;;;;;;;29.10;52.70;;;;;;5034170;28;87158;-57
2023/08/05 01:54:33;;;;;;;;;;;29.10;52.70;;;;;;5031363;28;87325;-52
2023/08/05 01:56:58;;;;;;;;;;;29.10;52.80;;;;;;5029266;28;88287;-55
2023/08/05 01:59:24;;;;;;;;;;;29.10;52.70;;;;;;5031502;28;88300;-54
2023/08/05 02:01:49;;;;;;;;;;;29.10;52.80;;;;;;5032301;28;87544;-57
2023/08/05 02:04:15;;;;;;;;;;;29.00;52.60;;;;;;5032360;28;88042;-56
2023/08/05 02:06:41;;;;;;;;;;;29.10;52.70;;;;;;5036174;28;87335;-57
2023/08/05 02:09:07;;;;;;;;;;;29.00;52.60;;;;;;5030002;28;90879;-54
2023/08/05 02:11:33;;;;;;;;;;;29.00;52.70;;;;;;5029428;28;87150;-56
2023/08/05 02:13:58;;;;;;;;;;;29.00;52.70;;;;;;5033712;28;86860;-57
2023/08/05 02:16:24;;;;;;;;;;;29.00;52.70;;;;;;5031468;28;88117;-53
2023/08/05 02:18:50;;;;;;;;;;;28.90;52.60;;;;;;5030733;28;87222;-57
2023/08/05 02:21:16;;;;;;;;;;;29.00;52.70;;;;;;5033383;28;87950;-57
2023/08/05 02:23:41;;;;;;;;;;;29.00;52.70;;;;;;5031084;28;88078;-55
2023/08/05 02:26:07;;;;;;;;;;;28.90;52.70;;;;;;5029668;28;87151;-60
2023/08/05 02:28:32;;;;;;;;;;;28.90;52.70;;;;;;5032740;28;90791;-54
2023/08/05 02:30:57;;;;;;;;;;;28.90;52.70;;;;;;5030244;28;87913;-53
2023/08/05 02:33:23;;;;;;;;;;;28.90;52.70;;;;;;5031502;28;88005;-56
2023/08/05 02:35:48;;;;;;;;;;;28.80;52.60;;;;;;5033437;28;88266;-51
2023/08/05 02:38:14;;;;;;;;;;;28.80;52.70;;;;;;5031313;28;86342;-57
2023/08/05 02:40:40;;;;;;;;;;;28.80;52.70;;;;;;5033240;28;87195;-57
2023/08/05 02:43:05;;;;;;;;;;;28.80;52.70;;;;;;5029666;28;88379;-56
2023/08/05 02:45:31;;;;;;;;;;;28.80;52.80;;;;;;5032133;28;88300;-57
2023/08/05 02:47:56;;;;;;;;;;;28.70;52.70;;;;;;5032492;28;88916;-54
2023/08/05 02:50:22;;;;;;;;;;;28.70;52.60;;;;;;5032821;28;87001;-53
2023/08/05 02:52:47;;;;;;;;;;;28.70;52.60;;;;;;5031771;27;88715;-55
2023/08/05 02:55:13;;;;;;;;;;;28.70;52.70;;;;;;5031520;28;88273;-55
2023/08/05 02:57:38;;;;;;;;;;;28.70;53.30;;;;;;5029066;28;87257;-55
2023/08/05 03:00:04;;;;;;;;;;;28.70;52.70;;;;;;5031590;28;87358;-54
2023/08/05 03:02:29;;;;;;;;;;;28.70;52.70;;;;;;5033219;28;87537;-53
2023/08/05 03:04:55;;;;;;;;;;;28.60;52.60;;;;;;5029693;28;87042;-54
2023/08/05 03:07:20;;;;;;;;;;;28.60;52.60;;;;;;5029769;28;87432;-55
2023/08/05 03:09:47;;;;;;;;;;;28.60;52.60;;;;;;5035211;28;88612;-55
2023/08/05 03:12:12;;;;;;;;;;;28.60;52.60;;;;;;5029045;27;87586;-55
2023/08/05 03:14:38;;;;;;;;;;;28.60;52.60;;;;;;5032248;28;87188;-55
2023/08/05 03:17:03;;;;;;;;;;;28.60;52.70;;;;;;5031322;28;87581;-55
2023/08/05 03:19:29;;;;;;;;;;;28.60;52.60;;;;;;5032403;27;87180;-52
2023/08/05 03:21:54;;;;;;;;;;;28.50;52.60;;;;;;5030694;28;87771;-51
2023/08/05 03:24:20;;;;;;;;;;;28.50;52.60;;;;;;5032729;28;87147;-53
2023/08/05 03:26:45;;;;;;;;;;;28.40;52.50;;;;;;5027998;28;86748;-53
2023/08/05 03:29:11;;;;;;;;;;;28.50;52.60;;;;;;5029427;28;88451;-55
2023/08/05 03:31:36;;;;;;;;;;;28.50;52.60;;;;;;5033014;28;87210;-54
2023/08/05 03:34:02;;;;;;;;;;;28.40;52.60;;;;;;5031870;28;89107;-55
2023/08/05 03:36:27;;;;;;;;;;;28.40;52.50;;;;;;5030482;28;87216;-53
2023/08/05 03:38:54;;;;;;;;;;;28.40;52.40;;;;;;5032062;28;87722;-55
2023/08/05 03:41:19;;;;;;;;;;;28.40;52.50;;;;;;5028600;28;90653;-53
2023/08/05 03:43:45;;;;;;;;;;;28.40;52.50;;;;;;5030257;28;87089;-53
2023/08/05 03:46:10;;;;;;;;;;;28.40;52.50;;;;;;5030242;27;88734;-55
2023/08/05 03:48:37;;;;;;;;;;;28.40;52.50;;;;;;5030027;28;87229;-55
2023/08/05 03:51:02;;;;;;;;;;;28.40;52.50;;;;;;5031656;28;86426;-52
2023/08/05 03:53:28;;;;;;;;;;;28.30;52.40;;;;;;5031855;28;87096;-54
2023/08/05 03:55:53;;;;;;;;;;;28.30;52.40;;;;;;5032442;28;87418;-54
2023/08/05 03:58:19;;;;;;;;;;;28.30;52.40;;;;;;5028453;28;89029;-54
2023/08/05 04:00:45;;;;;;;;;;;28.30;52.50;;;;;;5028646;28;88053;-54
2023/08/05 04:03:11;;;;;;;;;;;28.30;52.40;;;;;;5029127;28;87219;-54
2023/08/05 04:05:36;;;;;;;;;;;28.30;52.40;;;;;;5031308;28;88788;-53
2023/08/05 04:08:02;;;;;;;;;;;28.30;52.40;;;;;;5030434;28;89290;-54
2023/08/05 04:10:28;;;;;;;;;;;28.20;52.30;;;;;;5030825;28;87126;-53
2023/08/05 04:12:54;;;;;;;;;;;28.20;52.30;;;;;;5030670;27;88590;-54
2023/08/05 04:15:20;;;;;;;;;;;28.20;52.30;;;;;;5036722;28;87254;-53
2023/08/05 04:17:47;;;;;;;;;;;28.20;52.40;;;;;;5030338;28;88268;-54
2023/08/05 04:20:13;;;;;;;;;;;28.20;52.30;;;;;;5032054;28;88853;-54
2023/08/05 04:22:39;;;;;;;;;;;28.20;52.30;;;;;;5035524;28;88039;-55
2023/08/05 04:25:05;;;;;;;;;;;28.20;52.30;;;;;;5032182;28;89754;-55
2023/08/05 04:27:31;;;;;;;;;;;28.20;52.40;;;;;;5031972;28;89454;-55
2023/08/05 04:29:58;;;;;;;;;;;28.10;52.30;;;;;;5032361;28;87109;-55
2023/08/05 04:32:23;;;;;;;;;;;28.10;52.30;;;;;;5032244;28;88844;-54
2023/08/05 04:34:49;;;;;;;;;;;28.10;52.30;;;;;;5033720;28;88146;-55
2023/08/05 04:37:15;;;;;;;;;;;28.10;52.30;;;;;;5036942;28;87238;-55
2023/08/05 04:39:40;;;;;;;;;;;28.10;52.30;;;;;;5034436;28;89258;-55
2023/08/05 04:42:06;;;;;;;;;;;28.10;52.30;;;;;;5032326;27;87410;-54
2023/08/05 04:44:31;;;;;;;;;;;28.00;52.40;;;;;;5033800;28;88131;-55
2023/08/05 04:46:57;;;;;;;;;;;28.00;52.40;;;;;;5033661;28;89748;-53
2023/08/05 04:49:22;;;;;;;;;;;28.00;53.00;;;;;;5032417;28;87096;-54
2023/08/05 04:51:48;;;;;;;;;;;28.00;52.30;;;;;;5035210;28;89205;-53
2023/08/05 04:54:13;;;;;;;;;;;28.00;52.30;;;;;;5032504;28;88192;-54
2023/08/05 04:56:39;;;;;;;;;;;28.00;52.30;;;;;;5035992;28;87106;-54
2023/08/05 04:59:04;;;;;;;;;;;28.00;52.40;;;;;;5031635;28;87975;-53
2023/08/05 05:01:30;;;;;;;;;;;28.00;52.40;;;;;;5031979;28;87523;-53
2023/08/05 05:03:55;;;;;;;;;;;28.00;52.50;;;;;;5031675;27;88888;-54
2023/08/05 05:06:21;;;;;;;;;;;28.00;52.40;;;;;;5032336;28;88030;-52
2023/08/05 05:08:46;;;;;;;;;;;27.90;52.40;;;;;;5034582;28;87134;-55
2023/08/05 05:11:13;;;;;;;;;;;27.90;52.50;;;;;;5031372;28;88003;-53
2023/08/05 05:13:38;;;;;;;;;;;27.90;52.40;;;;;;5029869;28;89413;-52
2023/08/05 05:16:04;;;;;;;;;;;27.90;52.40;;;;;;5032430;28;87151;-54
2023/08/05 05:18:29;;;;;;;;;;;27.90;52.40;;;;;;5036511;28;87160;-57
2023/08/05 05:20:55;;;;;;;;;;;27.90;52.50;;;;;;5034098;28;87115;-54
2023/08/05 05:23:20;;;;;;;;;;;27.90;52.50;;;;;;5033048;28;87431;-54
2023/08/05 05:25:46;;;;;;;;;;;27.90;52.50;;;;;;5032177;27;88069;-53
2023/08/05 05:28:11;;;;;;;;;;;27.90;52.60;;;;;;5030580;28;87164;-53
2023/08/05 05:30:37;;;;;;;;;;;27.90;52.60;;;;;;5030899;28;87384;-53
2023/08/05 05:33:02;;;;;;;;;;;27.90;52.60;;;;;;5032559;28;91452;-51
2023/08/05 05:35:28;;;;;;;;;;;27.90;52.70;;;;;;5034866;28;87991;-54
2023/08/05 05:37:54;;;;;;;;;;;27.80;52.70;;;;;;5031746;28;88137;-50
2023/08/05 05:40:19;;;;;;;;;;;27.80;52.60;;;;;;5037907;28;88172;-56
2023/08/05 05:42:45;;;;;;;;;;;27.90;52.70;;;;;;5030808;27;87865;-55
2023/08/05 05:45:11;;;;;;;;;;;27.80;52.70;;;;;;5031971;28;87987;-53
2023/08/05 05:47:36;;;;;;;;;;;27.80;52.70;;;;;;5033300;28;87182;-54
2023/08/05 05:50:03;;;;;;;;;;;27.80;52.80;;;;;;5033473;28;87444;-55
2023/08/05 05:52:29;;;;;;;;;;;27.80;52.90;;;;;;5032623;28;88276;-54
2023/08/05 05:54:54;;;;;;;;;;;27.80;52.90;;;;;;5033271;28;87157;-55
2023/08/05 05:57:22;;;;;;;;;;;27.80;52.90;;;;;;5030228;28;87370;-54
2023/08/05 05:59:47;;;;;;;;;;;27.80;52.90;;;;;;5030209;28;89012;-53
2023/08/05 06:02:13;;;;;;;;;;;27.80;52.90;;;;;;5035262;28;87119;-53
2023/08/05 06:04:39;;;;;;;;;;;27.80;52.90;;;;;;5032449;28;88096;-51
2023/08/05 06:07:05;;;;;;;;;;;27.80;53.00;;;;;;5030859;28;87273;-55
2023/08/05 06:09:31;;;;;;;;;;;27.80;52.90;;;;;;5034441;28;87516;-54
2023/08/05 06:11:57;;;;;;;;;;;27.80;53.00;;;;;;5033118;28;88139;-52
2023/08/05 06:14:22;;;;;;;;;;;27.80;52.90;;;;;;5032828;28;87616;-53
2023/08/05 06:16:48;;;;;;;;;;;27.80;53.10;;;;;;5031749;28;87448;-51
2023/08/05 06:19:13;;;;;;;;;;;27.80;53.10;;;;;;5029884;28;87934;-53
2023/08/05 06:21:40;;;;;;;;;;;27.80;53.10;;;;;;5032204;28;87186;-53
2023/08/05 06:24:05;;;;;;;;;;;27.80;53.10;;;;;;5034025;28;88782;-52
2023/08/05 06:26:31;;;;;;;;;;;27.80;53.10;;;;;;5031141;28;87269;-52
2023/08/05 06:28:56;;;;;;;;;;;27.80;53.10;;;;;;5028848;28;88621;-55
2023/08/05 06:31:22;;;;;;;;;;;27.80;53.10;;;;;;5031230;28;88164;-55
2023/08/05 06:33:47;;;;;;;;;;;27.80;53.10;;;;;;5033301;28;87188;-54
2023/08/05 06:36:13;;;;;;;;;;;27.80;53.30;;;;;;5033936;28;87559;-53
2023/08/05 06:38:38;;;;;;;;;;;27.80;53.30;;;;;;5030821;28;89308;-55
2023/08/05 06:41:04;;;;;;;;;;;27.80;53.20;;;;;;5033365;28;86449;-52
2023/08/05 06:43:29;;;;;;;;;;;27.80;53.30;;;;;;5029820;28;88163;-55
2023/08/05 06:45:55;;;;;;;;;;;27.80;53.30;;;;;;5035429;28;87148;-54
2023/08/05 06:48:20;;;;;;;;;;;27.80;53.30;;;;;;5031420;28;87974;-55
2023/08/05 06:50:46;;;;;;;;;;;27.80;53.30;;;;;;5033518;28;87976;-52
2023/08/05 06:53:11;;;;;;;;;;;27.80;53.30;;;;;;5030579;28;87344;-54
2023/08/05 06:55:37;;;;;;;;;;;27.80;53.40;;;;;;5034326;28;87456;-54
2023/08/05 06:58:03;;;;;;;;;;;27.80;53.40;;;;;;5026975;28;87417;-55
2023/08/05 07:00:28;;;;;;;;;;;27.80;53.30;;;;;;5031556;28;87216;-54
2023/08/05 07:02:54;;;;;;;;;;;27.80;53.40;;;;;;5033162;28;87017;-51
2023/08/05 07:05:19;;;;;;;;;;;27.80;53.40;;;;;;5034386;28;88648;-52
2023/08/05 07:07:45;;;;;;;;;;;27.80;53.50;;;;;;5032426;28;87339;-53
2023/08/05 07:10:11;;;;;;;;;;;27.80;53.40;;;;;;5031344;28;88123;-53
2023/08/05 07:12:37;;;;;;;;;;;27.80;53.50;;;;;;5031202;28;88093;-53
2023/08/05 07:15:03;;;;;;;;;;;27.80;53.50;;;;;;5029841;28;88718;-54
2023/08/05 07:17:28;;;;;;;;;;;27.80;53.40;;;;;;5028555;28;89427;-52
2023/08/05 07:19:54;;;;;;;;;;;27.80;53.40;;;;;;5031390;28;87573;-55
2023/08/05 07:22:19;;;;;;;;;;;27.80;53.40;;;;;;5029749;28;87339;-53
2023/08/05 07:24:45;;;;;;;;;;;27.80;53.40;;;;;;5032749;28;88597;-54
2023/08/05 07:27:10;;;;;;;;;;;27.80;53.40;;;;;;5033504;28;87375;-52
2023/08/05 07:29:38;;;;;;;;;;;27.80;53.50;;;;;;5029478;28;87217;-51
2023/08/05 07:32:03;;;;;;;;;;;27.80;53.50;;;;;;5031035;28;87928;-54
2023/08/05 07:34:31;;;;;;;;;;;27.80;53.50;;;;;;5031911;28;87092;-54
2023/08/05 07:36:58;;;;;;;;;;;27.80;53.60;;;;;;5030842;28;88936;-54
2023/08/05 07:39:25;;;;;;;;;;;27.80;53.50;;;;;;5031208;28;87498;-53
2023/08/05 07:41:51;;;;;;;;;;;27.80;53.50;;;;;;5031955;27;89304;-55
2023/08/05 07:44:16;;;;;;;;;;;27.80;53.60;;;;;;5028720;28;88075;-52
2023/08/05 07:46:42;;;;;;;;;;;27.80;53.60;;;;;;5028303;28;87134;-52
2023/08/05 07:49:07;;;;;;;;;;;27.80;53.60;;;;;;5034149;28;88548;-55
2023/08/05 07:51:33;;;;;;;;;;;27.80;53.60;;;;;;5036382;28;87271;-55
2023/08/05 07:53:59;;;;;;;;;;;27.80;53.60;;;;;;5034168;28;87235;-52
2023/08/05 07:56:25;;;;;;;;;;;27.80;53.70;;;;;;5036084;28;87195;-54
2023/08/05 07:58:51;;;;;;;;;;;27.80;53.60;;;;;;5032026;28;87884;-55
2023/08/05 08:01:19;;;;;;;;;;;27.80;53.70;;;;;;5034200;27;88645;-52
2023/08/05 08:03:45;;;;;;;;;;;27.80;53.60;;;;;;5034137;28;89181;-53
2023/08/05 08:06:15;;;;;;;;;;;27.80;53.60;;;;;;5032111;28;87208;-54
2023/08/05 08:08:40;;;;;;;;;;;27.80;53.60;;;;;;5034587;27;89097;-53
2023/08/05 08:11:06;;;;;;;;;;;27.80;53.60;;;;;;5038388;28;89411;-53
2023/08/05 08:13:31;;;;;;;;;;;27.80;53.70;;;;;;5031895;28;87544;-54
2023/08/05 08:15:57;;;;;;;;;;;27.80;53.60;;;;;;5032944;28;88131;-54
2023/08/05 08:18:22;;;;;;;;;;;27.90;53.60;;;;;;5034794;28;87211;-54
2023/08/05 08:20:49;;;;;;;;;;;27.90;53.70;;;;;;5031467;28;87093;-51
2023/08/05 08:23:14;;;;;;;;;;;27.90;53.70;;;;;;5031957;28;88508;-55
2023/08/05 08:25:40;;;;;;;;;;;27.90;53.60;;;;;;5035306;28;88140;-53
2023/08/05 08:28:05;;;;;;;;;;;27.90;53.60;;;;;;5032049;28;88342;-54
2023/08/05 08:30:31;;;;;;;;;;;27.90;53.60;;;;;;5035005;28;88268;-51
2023/08/05 08:32:56;;;;;;;;;;;27.90;53.50;;;;;;5035919;28;87121;-52
2023/08/05 08:35:22;;;;;;;;;;;27.90;53.40;;;;;;5032424;28;87167;-51
2023/08/05 08:37:47;;;;;;;;;;;27.90;53.40;;;;;;5034896;28;87185;-53
2023/08/05 08:40:13;;;;;;;;;;;27.90;53.40;;;;;;5033059;28;87429;-55
2023/08/05 08:42:39;;;;;;;;;;;27.90;53.40;;;;;;5035523;28;86902;-54
2023/08/05 08:45:06;;;;;;;;;;;27.90;53.30;;;;;;5030431;28;87440;-54
2023/08/05 08:47:32;;;;;;;;;;;28.00;53.40;;;;;;5034346;28;88810;-55
2023/08/05 08:49:58;;;;;;;;;;;27.90;53.30;;;;;;5032879;28;89098;-51
2023/08/05 08:52:25;;;;;;;;;;;27.90;53.30;;;;;;5032275;28;87258;-53
2023/08/05 08:54:50;;;;;;;;;;;28.00;53.40;;;;;;5037668;28;87491;-54
2023/08/05 08:57:16;;;;;;;;;;;27.90;53.40;;;;;;5033179;28;87103;-53
2023/08/05 08:59:41;;;;;;;;;;;28.00;53.40;;;;;;5031332;28;89010;-55
2023/08/05 09:02:10;;;;;;;;;;;28.00;53.80;;;;;;5034208;28;88167;-53
2023/08/05 09:04:36;;;;;;;;;;;28.00;53.30;;;;;;5033935;28;86990;-53
2023/08/05 09:07:02;;;;;;;;;;;28.00;53.30;;;;;;5032597;27;88940;-55
2023/08/05 09:09:29;;;;;;;;;;;28.00;53.30;;;;;;5032880;28;87683;-53
2023/08/05 09:11:56;;;;;;;;;;;28.00;53.30;;;;;;5034877;28;87115;-54
2023/08/05 09:14:21;;;;;;;;;;;28.00;53.30;;;;;;5032803;28;88052;-55
2023/08/05 09:16:59;;;;;;;;;;;28.00;53.30;;;;;;5033729;28;87375;-50
2023/08/05 09:19:26;;;;;;;;;;;28.00;53.20;;;;;;5033266;28;87795;-51
2023/08/05 09:21:52;;;;;;;;;;;28.10;53.30;;;;;;5031431;28;88218;-55
2023/08/05 09:24:21;;;;;;;;;;;28.00;53.20;;;;;;5032617;28;87101;-55
2023/08/05 09:26:46;;;;;;;;;;;28.10;53.30;;;;;;5034228;28;87435;-55
2023/08/05 09:29:19;;;;;;;;;;;28.10;53.30;;;;;;5031403;28;88218;-52
2023/08/05 09:31:53;;;;;;;;;;;28.10;53.30;;;;;;5032592;28;86351;-54
2023/08/05 09:34:18;;;;;;;;;;;28.10;53.30;;;;;;5033796;28;87042;-53
2023/08/05 09:36:45;;;;;;;;;;;28.10;53.00;;;;;;5035105;28;88109;-55
2023/08/05 09:39:13;;;;;;;;;;;28.10;53.10;;;;;;5033075;27;88044;-53
2023/08/05 09:41:39;;;;;;;;;;;28.10;53.20;;;;;;5032144;28;89632;-55
2023/08/05 09:44:08;;;;;;;;;;;28.10;53.20;;;;;;5032634;28;87271;-53
2023/08/05 09:46:37;;;;;;;;;;;28.20;53.30;;;;;;5032136;28;87436;-52
2023/08/05 09:49:03;;;;;;;;;;;28.10;53.20;;;;;;5032025;28;88091;-54
2023/08/05 09:51:29;;;;;;;;;;;28.20;53.30;;;;;;5029668;28;87304;-54
2023/08/05 09:53:55;;;;;;;;;;;28.20;53.20;;;;;;5034878;28;88579;-52
2023/08/05 09:56:21;;;;;;;;;;;28.20;53.20;;;;;;5031782;28;87262;-54
2023/08/05 09:58:47;;;;;;;;;;;28.20;53.20;;;;;;5037925;28;87927;-54
2023/08/05 10:01:13;;;;;;;;;;;28.20;53.30;;;;;;5030187;27;89122;-52
2023/08/05 10:03:39;;;;;;;;;;;28.20;53.20;;;;;;5029751;28;88175;-55
2023/08/05 10:06:05;;;;;;;;;;;28.20;53.20;;;;;;5032142;28;88290;-53
2023/08/05 10:08:32;;;;;;;;;;;28.30;53.30;;;;;;5031276;27;89433;-54
2023/08/05 10:10:59;;;;;;;;;;;28.30;53.30;;;;;;5032979;28;87100;-52
2023/08/05 10:13:25;;;;;;;;;;;28.20;53.20;;;;;;5032665;28;89022;-54
2023/08/05 10:15:52;;;;;;;;;;;28.30;53.30;;;;;;5029418;28;89461;-55
2023/08/05 10:18:18;;;;;;;;;;;28.30;53.20;;;;;;5031563;28;87138;-55
2023/08/05 10:20:48;;;;;;;;;;;28.30;53.20;;;;;;5034739;28;87537;-55
2023/08/05 10:23:13;;;;;;;;;;;28.30;53.20;;;;;;5033326;28;87109;-54
2023/08/05 10:25:43;;;;;;;;;;;28.40;53.30;;;;;;5033821;28;87424;-52
2023/08/05 10:28:09;;;;;;;;;;;28.40;53.20;;;;;;5030388;28;89130;-54
2023/08/05 10:30:42;;;;;;;;;;;28.40;53.20;;;;;;5034023;27;87050;-54
2023/08/05 10:33:07;;;;;;;;;;;28.40;53.10;;;;;;5030616;28;88674;-53
2023/08/05 10:35:42;;;;;;;;;;;28.40;53.10;;;;;;5031180;28;87124;-55
2023/08/05 10:38:11;;;;;;;;;;;28.50;53.20;;;;;;5032969;28;87369;-55
2023/08/05 10:40:41;;;;;;;;;;;28.50;53.20;;;;;;5032252;28;89551;-52
2023/08/05 10:43:07;;;;;;;;;;;28.50;53.10;;;;;;5035128;28;87981;-54
2023/08/05 10:45:36;;;;;;;;;;;28.50;53.10;;;;;;5031133;27;87521;-54
2023/08/05 10:48:09;;;;;;;;;;;28.50;53.10;;;;;;5030470;28;88023;-56
2023/08/05 10:50:36;;;;;;;;;;;28.60;53.00;;;;;;5032167;28;87113;-53
2023/08/05 10:53:08;;;;;;;;;;;28.50;52.90;;;;;;5031515;28;88759;-55
2023/08/05 10:55:44;;;;;;;;;;;28.60;53.00;;;;;;5032368;28;87837;-50
2023/08/05 10:58:09;;;;;;;;;;;28.60;53.00;;;;;;5029282;28;87226;-54
2023/08/05 11:00:37;;;;;;;;;;;28.60;53.00;;;;;;5033384;27;87547;-55
2023/08/05 11:03:32;;;;;;;;;;;28.60;52.90;;;;;;5029734;28;88055;-54
2023/08/05 11:06:01;;;;;;;;;;;28.60;52.80;;;;;;5027375;28;87195;-54
2023/08/05 11:08:27;;;;;;;;;;;28.70;52.80;;;;;;5032325;28;89185;-55
2023/08/05 11:10:52;;;;;;;;;;;28.70;52.80;;;;;;5032566;28;86412;-55
2023/08/05 11:13:18;;;;;;;;;;;28.70;52.80;;;;;;5032470;28;87031;-54
2023/08/05 11:16:01;;;;;;;;;;;28.70;52.70;;;;;;5029204;28;88413;-52
2023/08/05 11:18:27;;;;;;;;;;;28.70;52.70;;;;;;5031901;28;88115;-55
2023/08/05 11:20:52;;;;;;;;;;;28.70;52.80;;;;;;5032641;28;88405;-52
2023/08/05 11:23:18;;;;;;;;;;;28.70;52.80;;;;;;5029709;28;88523;-55
2023/08/05 11:25:44;;;;;;;;;;;28.80;52.90;;;;;;5037747;28;87749;-51
2023/08/05 11:28:10;;;;;;;;;;;28.80;52.80;;;;;;5034663;28;88283;-52
2023/08/05 11:30:38;;;;;;;;;;;28.80;52.80;;;;;;5034961;27;87118;-55
2023/08/05 11:33:05;;;;;;;;;;;28.90;52.80;;;;;;5033906;28;87861;-51
2023/08/05 11:35:30;;;;;;;;;;;28.90;52.80;;;;;;5034692;28;86370;-51
2023/08/05 11:37:56;;;;;;;;;;;28.90;52.70;;;;;;5037246;28;87260;-54
2023/08/05 11:40:22;;;;;;;;;;;28.90;52.70;;;;;;5033705;28;88082;-54
2023/08/05 11:42:48;;;;;;;;;;;29.00;52.70;;;;;;5036256;28;88984;-54
2023/08/05 11:45:14;;;;;;;;;;;29.00;52.70;;;;;;5031325;28;87419;-55
2023/08/05 11:47:41;;;;;;;;;;;29.00;52.70;;;;;;5039033;28;87336;-52
2023/08/05 11:50:07;;;;;;;;;;;29.00;52.60;;;;;;5035461;28;87275;-55
2023/08/05 11:52:32;;;;;;;;;;;29.00;52.60;;;;;;5035244;27;87367;-55
2023/08/05 11:54:59;;;;;;;;;;;29.10;52.60;;;;;;5033400;28;88148;-53
2023/08/05 11:57:25;;;;;;;;;;;29.10;52.60;;;;;;5035244;28;87621;-55
2023/08/05 11:59:56;;;;;;;;;;;29.10;52.60;;;;;;5035492;28;86585;-56
2023/08/05 12:02:24;;;;;;;;;;;29.10;52.60;;;;;;5032408;28;88017;-53
2023/08/05 12:04:51;;;;;;;;;;;29.10;52.60;;;;;;5032659;28;87686;-53
2023/08/05 12:07:21;;;;;;;;;;;29.10;52.60;;;;;;5034256;28;88756;-55
2023/08/05 12:10:06;;;;;;;;;;;29.20;52.70;;;;;;5033516;28;91045;-53
2023/08/05 12:12:31;;;;;;;;;;;29.20;52.70;;;;;;5032579;28;88770;-54
2023/08/05 12:15:12;;;;;;;;;;;29.20;52.60;;;;;;5034190;28;87242;-52
2023/08/05 12:17:38;;;;;;;;;;;29.20;52.60;;;;;;5033727;28;87246;-51
2023/08/05 12:20:07;;;;;;;;;;;29.30;52.70;;;;;;5035422;28;88954;-53
2023/08/05 12:22:33;;;;;;;;;;;29.30;52.70;;;;;;5034889;28;89660;-53
2023/08/05 12:24:58;;;;;;;;;;;29.20;52.60;;;;;;5032895;28;86404;-54
2023/08/05 12:27:24;;;;;;;;;;;29.30;52.70;;;;;;5034689;28;87500;-50
2023/08/05 12:29:50;;;;;;;;;;;29.30;52.60;;;;;;5035389;28;88172;-49
2023/08/05 12:32:15;;;;;;;;;;;29.30;52.60;;;;;;5034514;28;88149;-54
2023/08/05 12:34:41;;;;;;;;;;;29.30;52.60;;;;;;5030354;28;87935;-53
2023/08/05 12:37:06;;;;;;;;;;;29.40;52.60;;;;;;5035505;28;87203;-51
2023/08/05 12:39:32;;;;;;;;;;;29.40;52.60;;;;;;5031383;28;87540;-55
2023/08/05 12:41:57;;;;;;;;;;;29.40;52.60;;;;;;5034181;28;87664;-52
2023/08/05 12:44:23;;;;;;;;;;;29.40;52.60;;;;;;5034692;28;87037;-52
2023/08/05 12:46:48;;;;;;;;;;;29.40;52.60;;;;;;5031511;28;87457;-52
2023/08/05 12:49:14;;;;;;;;;;;29.50;52.60;;;;;;5033843;28;89201;-54
2023/08/05 12:51:39;;;;;;;;;;;29.40;52.50;;;;;;5032482;28;87076;-52
2023/08/05 12:54:05;;;;;;;;;;;29.50;52.60;;;;;;5037042;28;87423;-53
2023/08/05 12:56:30;;;;;;;;;;;29.50;52.60;;;;;;5035243;28;88200;-51
2023/08/05 12:58:56;;;;;;;;;;;29.50;52.50;;;;;;5032740;28;88435;-51
2023/08/05 13:01:21;;;;;;;;;;;29.60;52.60;;;;;;5034038;28;87930;-53
2023/08/05 13:03:47;;;;;;;;;;;29.50;52.40;;;;;;5031825;28;87170;-54
2023/08/05 13:06:12;;;;;;;;;;;29.60;52.50;;;;;;5034384;28;87441;-55
2023/08/05 13:08:38;;;;;;;;;;;29.60;52.40;;;;;;5035436;28;88036;-55
2023/08/05 13:11:03;;;;;;;;;;;29.60;52.50;;;;;;5030780;27;87271;-53
2023/08/05 13:13:29;;;;;;;;;;;29.60;52.50;;;;;;5038173;28;87504;-50
2023/08/05 13:15:54;;;;;;;;;;;29.70;52.50;;;;;;5029997;28;87553;-53
2023/08/05 13:18:20;;;;;;;;;;;29.70;52.40;;;;;;5035802;28;87535;-53
2023/08/05 13:20:46;;;;;;;;;;;29.70;52.40;;;;;;5033293;28;88235;-52
2023/08/05 13:23:12;;;;;;;;;;;29.70;52.40;;;;;;5032423;28;87126;-50
2023/08/05 13:25:37;;;;;;;;;;;29.70;52.30;;;;;;5034200;28;87401;-53
2023/08/05 13:28:03;;;;;;;;;;;29.70;52.30;;;;;;5031781;28;91297;-51
2023/08/05 13:30:28;;;;;;;;;;;29.70;52.30;;;;;;5033217;28;87094;-55
2023/08/05 13:32:54;;;;;;;;;;;29.80;52.30;;;;;;5031955;28;87512;-53
2023/08/05 13:35:19;;;;;;;;;;;29.80;52.20;;;;;;5033678;28;88610;-50
2023/08/05 13:37:44;;;;;;;;;;;29.80;52.20;;;;;;5035141;28;87667;-53
2023/08/05 13:40:10;;;;;;;;;;;29.80;52.20;;;;;;5033023;28;88097;-54
2023/08/05 13:42:36;;;;;;;;;;;29.80;52.20;;;;;;5031902;28;87201;-51
2023/08/05 13:45:01;;;;;;;;;;;29.80;52.10;;;;;;5033751;28;88017;-54
2023/08/05 13:47:27;;;;;;;;;;;29.80;52.10;;;;;;5029948;28;88216;-50
2023/08/05 13:49:52;;;;;;;;;;;29.90;52.10;;;;;;5033138;28;87197;-55
2023/08/05 13:52:17;;;;;;;;;;;29.90;52.10;;;;;;5032954;28;87447;-55
2023/08/05 13:54:43;;;;;;;;;;;29.90;52.00;;;;;;5033479;28;88147;-55
2023/08/05 13:57:08;;;;;;;;;;;29.90;52.00;;;;;;5035656;28;88151;-53
2023/08/05 13:59:34;;;;;;;;;;;29.90;52.00;;;;;;5032021;28;89882;-51
2023/08/05 14:01:59;;;;;;;;;;;29.90;51.90;;;;;;5031389;28;86394;-53
2023/08/05 14:04:25;;;;;;;;;;;29.90;51.90;;;;;;5033480;28;87184;-54
2023/08/05 14:06:50;;;;;;;;;;;30.00;52.00;;;;;;5030972;28;88033;-49
2023/08/05 14:09:16;;;;;;;;;;;29.90;51.90;;;;;;5033455;28;88072;-55